Time;durP1;ratioP1;P1;durP2;ratioP2;P2;SDS_P1;SDS_P2;PMS_P1;PMS_P2;Temp;Humidity;BMP_temperature;BMP_pressure;BME280_temperature;BME280_humidity;BME280_pressure;Samples;Min_cycle;Max_cycle;Signal;HPM_P1;HPM_P2
2022/08/12 00:44:32;;;;;;;0.97;0.97;;;20.60;51.90;21.00;96712.00;;;;5073648;28;20239;-82
2022/08/12 00:47:02;;;;;;;1.80;1.27;;;20.60;51.90;21.10;96704.00;;;;5074666;28;20291;-83
2022/08/12 00:49:31;;;;;;;1.20;1.10;;;20.60;51.90;21.10;96708.00;;;;5067929;28;20299;-82
2022/08/12 00:52:07;;;;;;;1.00;0.97;;;20.60;52.00;21.10;96702.00;;;;5078567;28;20667;-83
2022/08/12 00:54:41;;;;;;;1.20;1.10;;;20.60;52.10;21.10;96707.00;;;;5078227;28;20203;-82
2022/08/12 00:57:13;;;;;;;1.30;1.20;;;20.60;52.00;21.10;96716.00;;;;5078695;28;20257;-83
2022/08/12 00:59:49;;;;;;;1.87;1.27;;;20.60;52.10;21.10;96705.00;;;;5076420;28;20255;-83
2022/08/12 01:02:24;;;;;;;1.33;1.23;;;20.70;52.80;21.10;96708.00;;;;5073756;28;20200;-83
2022/08/12 01:13:19;;;;;;;1.30;1.20;;;20.70;52.10;21.20;96718.00;;;;5073760;28;20620;-83
2022/08/12 01:15:50;;;;;;;1.10;1.10;;;20.70;52.10;21.20;96716.00;;;;5073785;28;20204;-83
2022/08/12 01:18:19;;;;;;;1.30;1.20;;;20.70;52.10;21.20;96714.00;;;;5072679;28;20193;-83
2022/08/12 01:21:06;;;;;;;1.27;1.17;;;20.70;52.10;21.10;96705.00;;;;5074227;28;20273;-82
2022/08/12 01:23:51;;;;;;;1.27;1.27;;;20.70;52.40;21.10;96706.00;;;;5074137;28;20685;-82
2022/08/12 01:26:23;;;;;;;1.60;1.30;;;20.70;52.50;21.10;96705.00;;;;5073785;28;20214;-83
2022/08/12 01:28:55;;;;;;;1.17;1.07;;;20.70;52.20;21.10;96703.00;;;;5074422;28;20196;-83
2022/08/12 01:31:24;;;;;;;1.17;1.17;;;20.70;52.20;21.10;96704.00;;;;5073471;28;20218;-83
2022/08/12 01:34:03;;;;;;;1.40;1.20;;;20.70;52.80;21.10;96709.00;;;;5073677;28;20291;-83
2022/08/12 01:36:39;;;;;;;1.30;1.17;;;20.70;52.40;21.10;96705.00;;;;5073785;28;20241;-82
2022/08/12 01:39:08;;;;;;;1.20;0.90;;;20.70;52.30;21.00;96700.00;;;;5074004;28;20200;-83
2022/08/12 01:41:45;;;;;;;1.23;1.13;;;20.60;52.30;21.00;96704.00;;;;5073867;28;20386;-82
2022/08/12 01:44:16;;;;;;;1.10;1.10;;;20.60;52.40;21.00;96708.00;;;;5074170;28;20204;-82
2022/08/12 01:46:58;;;;;;;1.43;0.93;;;20.60;52.40;21.00;96701.00;;;;5073618;28;20279;-82
2022/08/12 01:49:50;;;;;;;1.17;1.10;;;20.60;52.50;21.00;96699.00;;;;5073100;28;20227;-83
2022/08/12 01:52:31;;;;;;;1.20;1.10;;;20.60;52.60;21.00;96700.00;;;;5073421;28;20223;-82
2022/08/12 01:54:59;;;;;;;1.20;1.10;;;20.60;52.50;20.90;96698.00;;;;5064851;28;20595;-83
2022/08/12 01:57:43;;;;;;;1.47;1.30;;;20.50;52.40;20.90;96696.00;;;;5073460;28;20192;-83
2022/08/12 02:00:14;;;;;;;1.10;1.00;;;20.50;53.20;20.90;96691.00;;;;5069122;28;20234;-82
2022/08/12 02:02:50;;;;;;;0.90;0.90;;;20.50;52.50;20.90;96687.00;;;;5075917;28;20294;-82
2022/08/12 02:11:22;;;;;;;1.03;1.00;;;20.40;52.60;20.80;96695.00;;;;5071166;28;20265;-82
2022/08/12 02:14:20;;;;;;;1.47;1.30;;;20.40;52.60;20.70;96684.00;;;;5074279;28;20199;-82
2022/08/12 02:17:04;;;;;;;1.40;1.10;;;20.40;53.00;20.70;96678.00;;;;5072819;28;20203;-82
2022/08/12 02:20:03;;;;;;;1.40;1.20;;;20.30;52.90;20.60;96679.00;;;;5072414;28;20246;-82
2022/08/12 02:22:36;;;;;;;1.87;1.27;;;20.30;53.10;20.60;96675.00;;;;5072908;28;20235;-83
2022/08/12 02:25:12;;;;;;;1.50;1.40;;;20.20;52.70;20.60;96666.00;;;;5067330;28;20197;-82
2022/08/12 02:27:46;;;;;;;1.60;1.20;;;20.20;52.90;20.50;96674.00;;;;5071166;28;20225;-84
2022/08/12 02:30:18;;;;;;;1.47;1.30;;;20.20;53.00;20.50;96669.00;;;;5061359;28;20246;-85
2022/08/12 02:32:52;;;;;;;2.00;1.40;;;20.10;53.10;20.50;96665.00;;;;5069493;28;20210;-82
2022/08/12 02:35:21;;;;;;;1.20;1.10;;;20.10;53.20;20.40;96677.00;;;;5072211;28;20216;-84
2022/08/12 02:37:52;;;;;;;2.40;1.17;;;20.10;53.40;20.40;96672.00;;;;5069872;28;20668;-83
2022/08/12 02:40:23;;;;;;;1.67;1.57;;;20.00;53.50;20.30;96673.00;;;;5069876;28;20295;-84
2022/08/12 02:42:58;;;;;;;1.10;1.10;;;20.00;53.60;20.30;96667.00;;;;5072702;28;20226;-83
2022/08/12 02:45:36;;;;;;;1.27;1.27;;;19.90;53.70;20.20;96665.00;;;;5072722;28;20200;-83
2022/08/12 02:48:09;;;;;;;1.20;1.20;;;19.90;53.90;20.20;96675.00;;;;5074526;28;20931;-82
2022/08/12 02:50:45;;;;;;;1.83;1.20;;;19.90;53.90;20.20;96675.00;;;;5065246;28;20302;-81
2022/08/12 02:53:13;;;;;;;6.07;1.40;;;19.80;54.10;20.10;96670.00;;;;5069350;28;20199;-82
2022/08/12 02:55:41;;;;;;;2.17;1.20;;;19.80;54.20;20.10;96665.00;;;;5074042;28;20736;-83
2022/08/12 02:58:11;;;;;;;1.00;1.00;;;19.80;54.30;20.00;96663.00;;;;5074601;28;20274;-82
2022/08/12 03:00:40;;;;;;;1.73;1.10;;;19.70;54.30;20.00;96663.00;;;;5073667;28;20219;-83
2022/08/12 03:03:11;;;;;;;1.23;1.13;;;19.70;54.50;20.00;96661.00;;;;5062978;28;20306;-83
2022/08/12 03:05:49;;;;;;;1.13;1.13;;;19.60;54.40;19.90;96668.00;;;;5072000;28;20180;-83
2022/08/12 03:08:23;;;;;;;2.03;1.60;;;19.60;54.60;19.90;96675.00;;;;5072122;28;20194;-83
2022/08/12 03:10:56;;;;;;;1.67;1.53;;;19.60;54.60;19.90;96664.00;;;;5072339;28;20222;-83
2022/08/12 03:13:26;;;;;;;1.20;1.10;;;19.50;54.60;19.80;96667.00;;;;5071979;28;20286;-82
2022/08/12 03:15:56;;;;;;;1.10;1.00;;;19.50;54.80;19.80;96658.00;;;;5071453;28;20657;-82
2022/08/12 03:18:30;;;;;;;1.30;1.20;;;19.50;54.90;19.80;96670.00;;;;5071880;28;20196;-83
2022/08/12 03:20:59;;;;;;;3.13;1.27;;;19.50;55.10;19.70;96664.00;;;;5072333;28;20251;-82
2022/08/12 03:23:27;;;;;;;1.27;1.10;;;19.40;55.00;19.70;96663.00;;;;5071294;28;20315;-83
2022/08/12 03:25:56;;;;;;;1.30;1.20;;;19.40;55.10;19.70;96656.00;;;;5064226;28;20223;-82
2022/08/12 03:31:11;;;;;;;1.20;1.03;;;19.30;55.20;19.70;96655.00;;;;5067843;28;20223;-82
2022/08/12 03:33:42;;;;;;;1.20;1.00;;;19.30;55.20;19.60;96658.00;;;;5057122;28;20230;-83
2022/08/12 03:36:15;;;;;;;1.10;1.10;;;19.30;55.30;19.60;96656.00;;;;5051574;28;20204;-82
2022/08/12 03:38:58;;;;;;;1.20;1.10;;;19.30;55.40;19.60;96654.00;;;;5066251;28;20231;-82
2022/08/12 03:41:35;;;;;;;1.33;1.23;;;19.30;55.40;19.60;96644.00;;;;5067296;28;20216;-86
2022/08/12 04:00:54;;;;;;;1.83;1.30;;;19.10;55.80;19.40;96646.00;;;;5060610;28;20218;-83
2022/08/12 04:06:10;;;;;;;1.50;1.40;;;19.10;56.00;19.40;96649.00;;;;5071071;28;20196;-83
2022/08/12 04:08:38;;;;;;;1.57;1.47;;;19.00;56.00;19.40;96649.00;;;;5071455;28;20282;-82
2022/08/12 04:13:51;;;;;;;1.60;1.13;;;19.00;56.20;19.40;96650.00;;;;5070977;28;20203;-83
2022/08/12 04:16:20;;;;;;;1.50;1.40;;;19.00;56.20;19.40;96649.00;;;;5067777;28;20204;-82
2022/08/12 04:18:52;;;;;;;1.43;1.10;;;19.00;56.30;19.40;96653.00;;;;5065218;28;20606;-83
2022/08/12 04:21:19;;;;;;;1.53;1.33;;;19.00;56.40;19.40;96655.00;;;;5060491;28;20215;-83
2022/08/12 04:23:48;;;;;;;1.63;1.30;;;19.00;56.40;19.40;96652.00;;;;5061349;28;20222;-83
2022/08/12 04:26:15;;;;;;;1.73;1.20;;;19.00;56.50;19.40;96656.00;;;;5060561;28;20717;-83
2022/08/12 04:28:42;;;;;;;1.20;1.20;;;19.00;56.60;19.40;96648.00;;;;5060050;28;20275;-83
2022/08/12 04:31:11;;;;;;;3.17;1.77;;;19.00;56.60;19.40;96655.00;;;;5068204;28;20220;-83
2022/08/12 04:33:40;;;;;;;1.47;1.37;;;19.00;56.70;19.40;96650.00;;;;5068555;28;20204;-83
2022/08/12 04:36:09;;;;;;;3.80;1.57;;;19.00;56.70;19.40;96648.00;;;;5094581;22;20215;-84
2022/08/12 04:38:37;;;;;;;1.40;1.30;;;19.00;56.80;19.40;96651.00;;;;5094301;28;20199;-84
2022/08/12 04:41:06;;;;;;;1.50;1.40;;;19.00;56.80;19.40;96653.00;;;;5087915;28;20402;-84
2022/08/12 04:43:33;;;;;;;1.40;1.30;;;19.00;57.20;19.40;96647.00;;;;5091594;28;20234;-85
2022/08/12 04:46:01;;;;;;;1.10;1.10;;;19.00;56.90;19.40;96654.00;;;;5093848;28;20294;-84
2022/08/12 04:48:28;;;;;;;1.23;1.13;;;19.00;57.00;19.40;96649.00;;;;5094545;28;20199;-84
2022/08/12 04:50:56;;;;;;;1.50;1.40;;;19.00;57.00;19.40;96648.00;;;;5094361;28;20252;-84
2022/08/12 04:53:25;;;;;;;1.30;1.20;;;19.00;57.10;19.50;96652.00;;;;5093853;28;20199;-84
2022/08/12 04:55:52;;;;;;;1.30;1.20;;;19.10;57.20;19.50;96655.00;;;;5095591;28;20231;-84
2022/08/12 04:58:20;;;;;;;1.47;1.37;;;19.10;57.20;19.50;96658.00;;;;5099811;28;20202;-85
2022/08/12 05:00:47;;;;;;;1.20;1.10;;;19.10;57.30;19.50;96653.00;;;;5094217;28;20698;-85
2022/08/12 05:03:15;;;;;;;1.50;1.10;;;19.10;57.20;19.50;96651.00;;;;5092885;28;20261;-85
2022/08/12 05:05:43;;;;;;;1.50;1.40;;;19.10;57.30;19.50;96655.00;;;;5094076;28;20306;-85
2022/08/12 05:08:12;;;;;;;1.40;1.30;;;19.10;57.30;19.50;96648.00;;;;5094320;28;20195;-85
2022/08/12 05:10:40;;;;;;;1.93;1.40;;;19.10;57.30;19.60;96653.00;;;;5095023;28;20288;-85
2022/08/12 05:13:11;;;;;;;1.77;1.17;;;19.20;57.40;19.60;96657.00;;;;5092740;28;20192;-85
2022/08/12 05:15:40;;;;;;;1.20;1.10;;;19.20;57.40;19.60;96666.00;;;;5094578;28;20216;-85
2022/08/12 05:18:07;;;;;;;1.23;1.23;;;19.20;57.40;19.60;96667.00;;;;5093414;28;20294;-85
2022/08/12 05:20:34;;;;;;;1.87;1.20;;;19.20;57.40;19.70;96667.00;;;;5095572;28;20283;-87
2022/08/12 05:23:09;;;;;;;1.67;1.30;;;19.20;57.40;19.70;96669.00;;;;5094416;28;20282;-86
2022/08/12 05:25:36;;;;;;;1.27;1.13;;;19.30;57.70;19.80;96669.00;;;;5093381;28;20270;-89
2022/08/12 05:28:06;;;;;;;1.10;1.10;;;19.30;57.50;19.80;96673.00;;;;5097441;28;20617;-88
2022/08/12 05:30:34;;;;;;;1.20;1.10;;;19.30;57.60;19.90;96668.00;;;;5095821;28;20234;-89
2022/08/12 05:33:04;;;;;;;1.13;1.13;;;19.30;57.60;19.90;96675.00;;;;5093830;28;20259;-89
2022/08/12 05:35:38;;;;;;;1.33;1.23;;;19.40;57.60;19.90;96674.00;;;;5093011;28;20606;-89
2022/08/12 05:40:50;;;;;;;3.20;1.63;;;19.40;57.70;20.00;96676.00;;;;5094032;28;20316;-89
2022/08/12 05:43:19;;;;;;;2.93;1.40;;;19.50;57.60;20.00;96676.00;;;;5096401;28;20230;-89
2022/08/12 05:45:48;;;;;;;1.40;1.30;;;19.50;57.60;20.10;96677.00;;;;5093216;28;20235;-89
2022/08/12 05:48:16;;;;;;;1.20;1.10;;;19.50;57.60;20.10;96681.00;;;;5093430;28;20204;-89
2022/08/12 05:50:45;;;;;;;2.13;1.20;;;19.60;57.70;20.10;96675.00;;;;5092998;28;20241;-89
2022/08/12 05:53:13;;;;;;;2.17;1.27;;;19.60;57.70;20.20;96673.00;;;;5093486;28;20280;-89
2022/08/12 05:55:40;;;;;;;1.60;1.50;;;19.60;57.70;20.20;96677.00;;;;5093061;28;20219;-89
2022/08/12 05:58:07;;;;;;;1.40;1.27;;;19.70;57.70;20.30;96678.00;;;;5093466;28;20256;-88
2022/08/12 06:00:37;;;;;;;1.30;1.20;;;19.70;57.60;20.30;96682.00;;;;5097336;28;20197;-89
2022/08/12 06:03:06;;;;;;;1.63;1.30;;;19.70;57.60;20.30;96685.00;;;;5092958;28;20271;-88
2022/08/12 06:05:36;;;;;;;1.30;1.30;;;19.80;58.20;20.40;96685.00;;;;5091792;28;20252;-87
2022/08/12 06:08:06;;;;;;;1.43;1.20;;;19.80;57.60;20.40;96687.00;;;;5093124;28;20679;-88
2022/08/12 06:10:35;;;;;;;1.57;1.30;;;19.90;57.40;20.50;96679.00;;;;5093170;28;20219;-90
2022/08/12 06:13:06;;;;;;;1.80;1.10;;;19.90;57.30;20.50;96676.00;;;;5092739;28;20193;-89
2022/08/12 06:15:36;;;;;;;1.23;1.20;;;20.00;57.10;20.60;96682.00;;;;5092897;28;20260;-88
2022/08/12 06:18:06;;;;;;;1.60;1.50;;;20.00;57.00;20.70;96680.00;;;;5092911;28;20206;-88
2022/08/12 06:20:34;;;;;;;1.23;1.10;;;20.10;56.90;20.70;96679.00;;;;5092892;28;20207;-88
2022/08/12 06:23:02;;;;;;;1.07;1.00;;;20.10;56.80;20.80;96684.00;;;;5092160;28;20230;-87
2022/08/12 06:25:30;;;;;;;2.80;1.10;;;20.20;56.80;20.90;96687.00;;;;5088255;28;20306;-87
2022/08/12 06:28:01;;;;;;;1.87;1.40;;;20.30;56.80;20.90;96679.00;;;;5090573;28;20205;-88
2022/08/12 06:30:33;;;;;;;1.73;1.00;;;20.30;56.60;21.00;96682.00;;;;5087999;28;20188;-86
2022/08/12 06:33:02;;;;;;;1.43;1.37;;;20.40;56.50;21.10;96689.00;;;;5092963;28;20195;-87
2022/08/12 06:35:30;;;;;;;1.03;1.03;;;20.50;56.40;21.20;96697.00;;;;5090943;28;20216;-88
2022/08/12 06:37:57;;;;;;;2.20;1.30;;;20.50;56.40;21.30;96693.00;;;;5095436;28;20774;-88
2022/08/12 06:43:06;;;;;;;2.13;1.43;;;20.70;56.40;21.40;96690.00;;;;5092698;28;20199;-88
2022/08/12 06:45:43;;;;;;;1.40;1.30;;;20.80;56.30;21.50;96688.00;;;;5092959;28;20746;-88
2022/08/12 06:48:12;;;;;;;1.93;0.93;;;20.90;56.30;21.60;96693.00;;;;5092594;28;20248;-88
2022/08/12 06:50:41;;;;;;;1.43;1.10;;;21.00;56.10;21.70;96684.00;;;;5092180;28;20239;-88
2022/08/12 06:53:08;;;;;;;0.87;0.87;;;21.00;56.10;21.80;96684.00;;;;5092230;28;20196;-88
2022/08/12 06:55:35;;;;;;;1.10;1.00;;;21.10;56.10;21.90;96682.00;;;;5091603;28;20668;-88
2022/08/12 06:58:05;;;;;;;2.23;1.30;;;21.20;56.00;22.00;96687.00;;;;5109854;28;20373;-86
2022/08/12 07:00:34;;;;;;;1.17;0.93;;;21.30;55.60;22.10;96691.00;;;;5096913;28;20197;-88
2022/08/12 07:03:05;;;;;;;1.10;0.90;;;21.40;55.60;22.20;96698.00;;;;5091872;28;20223;-88
2022/08/12 07:05:33;;;;;;;1.53;1.00;;;21.50;55.50;22.30;96688.00;;;;5091079;28;20204;-88
2022/08/12 07:08:11;;;;;;;0.97;0.90;;;21.60;55.60;22.40;96688.00;;;;5093823;28;20206;-89
2022/08/12 07:10:46;;;;;;;3.03;1.17;;;21.70;55.20;22.60;96691.00;;;;5094038;28;20281;-88
2022/08/12 07:13:13;;;;;;;1.10;1.10;;;21.80;55.30;22.70;96693.00;;;;5093797;28;20194;-88
2022/08/12 07:15:42;;;;;;;1.17;1.13;;;21.90;55.10;22.80;96689.00;;;;5093576;28;20655;-89
2022/08/12 07:18:16;;;;;;;1.10;1.00;;;22.00;54.90;23.00;96700.00;;;;5092436;28;20822;-87
2022/08/12 07:20:47;;;;;;;1.07;0.97;;;22.20;54.90;23.20;96698.00;;;;5090757;28;20196;-85
2022/08/12 07:23:17;;;;;;;1.60;0.90;;;22.30;54.80;23.30;96704.00;;;;5091795;28;20601;-85
2022/08/12 07:25:44;;;;;;;1.00;0.90;;;22.40;54.50;23.50;96694.00;;;;5091854;28;20246;-85
2022/08/12 07:28:15;;;;;;;2.93;1.13;;;22.60;54.30;23.70;96699.00;;;;5099809;28;20274;-85
2022/08/12 07:30:43;;;;;;;1.60;1.00;;;22.70;54.20;23.90;96696.00;;;;5091813;28;20222;-85
2022/08/12 07:33:15;;;;;;;1.73;1.00;;;22.90;54.00;24.10;96701.00;;;;5086603;28;20199;-86
2022/08/12 07:35:46;;;;;;;1.40;1.30;;;23.10;53.80;24.30;96697.00;;;;5094575;28;20647;-86
2022/08/12 07:38:24;;;;;;;1.30;1.20;;;23.20;53.80;24.50;96707.00;;;;5093855;28;20736;-85
2022/08/12 07:40:55;;;;;;;1.57;0.90;;;23.40;53.50;24.70;96701.00;;;;5094547;28;20191;-84
2022/08/12 07:43:22;;;;;;;0.93;0.93;;;23.50;53.40;24.80;96710.00;;;;5093570;28;20263;-84
2022/08/12 07:45:52;;;;;;;1.00;0.90;;;23.70;53.20;25.00;96705.00;;;;5091489;28;20221;-85
2022/08/12 07:48:20;;;;;;;0.87;0.87;;;23.90;53.10;25.20;96715.00;;;;5090901;28;20187;-86
2022/08/12 07:50:49;;;;;;;0.80;0.80;;;24.00;52.90;25.30;96708.00;;;;5094717;28;20591;-86
2022/08/12 07:53:16;;;;;;;1.00;1.00;;;24.20;52.70;25.50;96705.00;;;;5091209;28;20203;-85
2022/08/12 07:55:44;;;;;;;1.63;1.07;;;24.40;52.50;25.60;96707.00;;;;5090149;28;20259;-84
2022/08/12 07:58:11;;;;;;;2.43;1.13;;;24.50;52.10;25.80;96712.00;;;;5096165;28;20221;-87
2022/08/12 08:00:40;;;;;;;1.23;1.20;;;24.70;51.90;25.90;96711.00;;;;5096685;28;20206;-87
2022/08/12 08:03:08;;;;;;;1.43;1.07;;;24.80;51.60;26.00;96714.00;;;;5091047;28;20213;-88
2022/08/12 08:05:45;;;;;;;1.13;1.10;;;25.00;51.60;26.10;96721.00;;;;5088154;28;20218;-87
2022/08/12 08:08:20;;;;;;;1.07;1.07;;;25.10;51.10;26.20;96721.00;;;;5094362;28;20666;-88
2022/08/12 08:10:50;;;;;;;1.47;1.10;;;25.20;50.50;26.30;96725.00;;;;5094005;28;20292;-87
2022/08/12 08:13:17;;;;;;;1.53;1.20;;;25.20;50.30;26.30;96727.00;;;;5094726;28;20225;-86
2022/08/12 08:15:45;;;;;;;1.13;1.03;;;25.40;50.20;26.30;96721.00;;;;5109273;28;20380;-86
2022/08/12 08:18:16;;;;;;;1.30;1.20;;;25.40;50.80;26.40;96720.00;;;;5095156;28;20674;-86
2022/08/12 08:20:45;;;;;;;1.70;1.10;;;25.50;50.10;26.50;96723.00;;;;5094424;28;20662;-85
2022/08/12 08:23:18;;;;;;;1.00;0.90;;;25.60;50.00;26.60;96712.00;;;;5094768;28;20274;-85
2022/08/12 08:25:46;;;;;;;3.43;1.03;;;25.60;50.00;26.80;96724.00;;;;5090560;28;20258;-86
2022/08/12 08:28:15;;;;;;;1.03;1.00;;;25.80;49.80;27.00;96715.00;;;;5103609;28;20278;-87
2022/08/12 08:30:46;;;;;;;1.47;1.00;;;25.80;49.90;27.10;96710.00;;;;5100637;28;20543;-86
2022/08/12 08:33:15;;;;;;;3.20;1.20;;;26.00;49.90;27.30;96710.00;;;;5094542;28;20191;-86
2022/08/12 08:35:47;;;;;;;1.77;1.07;;;26.10;49.70;27.50;96713.00;;;;5093093;28;20230;-85
2022/08/12 08:38:17;;;;;;;1.90;0.90;;;26.30;49.50;27.70;96721.00;;;;5093743;28;20187;-86
2022/08/12 08:43:32;;;;;;;2.30;0.80;;;26.50;48.90;28.00;96723.00;;;;5091700;28;20198;-87
2022/08/12 08:46:04;;;;;;;1.77;0.87;;;26.70;48.80;28.20;96726.00;;;;5093893;28;20226;-87
2022/08/12 08:48:33;;;;;;;0.97;0.93;;;26.90;48.40;28.40;96717.00;;;;5094775;28;20525;-86
2022/08/12 08:51:04;;;;;;;1.00;0.90;;;27.10;48.20;28.50;96719.00;;;;5094098;28;20203;-85
2022/08/12 08:53:34;;;;;;;1.37;0.90;;;27.20;47.90;28.70;96718.00;;;;5094653;28;20191;-86
2022/08/12 08:56:01;;;;;;;1.50;0.87;;;27.40;47.80;28.80;96727.00;;;;5093125;28;20308;-86
2022/08/12 08:58:28;;;;;;;0.97;0.93;;;27.50;47.60;29.00;96726.00;;;;5094257;28;20223;-86
2022/08/12 09:00:55;;;;;;;1.03;0.93;;;27.70;47.30;29.10;96736.00;;;;5094452;28;20192;-86
2022/08/12 09:03:25;;;;;;;0.87;0.83;;;27.80;47.20;29.20;96725.00;;;;5095354;28;20234;-86
2022/08/12 09:05:53;;;;;;;1.33;0.70;;;27.90;47.00;29.40;96728.00;;;;5097247;28;20238;-87
2022/08/12 09:08:21;;;;;;;2.70;0.90;;;28.00;46.50;29.40;96732.00;;;;5097525;28;20199;-85
2022/08/12 09:10:50;;;;;;;1.27;0.83;;;28.20;46.20;29.50;96730.00;;;;5093737;28;20601;-84
2022/08/12 09:13:28;;;;;;;2.33;1.00;;;28.30;45.90;29.60;96724.00;;;;5097151;28;20192;-85
2022/08/12 09:15:55;;;;;;;0.83;0.83;;;28.40;45.90;29.70;96740.00;;;;5095347;28;20243;-85
2022/08/12 09:18:23;;;;;;;3.20;1.00;;;28.40;45.50;29.70;96731.00;;;;5097511;28;20218;-84
2022/08/12 09:20:50;;;;;;;0.90;0.90;;;28.50;45.10;29.80;96727.00;;;;5097302;28;20211;-85
2022/08/12 09:23:18;;;;;;;0.70;0.70;;;28.60;44.80;29.80;96734.00;;;;5096615;28;20240;-86
2022/08/12 09:25:47;;;;;;;0.87;0.87;;;28.60;44.80;29.90;96734.00;;;;5095632;28;20231;-85
2022/08/12 09:28:16;;;;;;;0.70;0.70;;;28.70;44.90;29.90;96728.00;;;;5098844;28;20187;-84
2022/08/12 09:30:47;;;;;;;1.57;0.83;;;28.70;44.60;29.90;96723.00;;;;5095741;28;20612;-85
2022/08/12 09:33:15;;;;;;;1.57;0.93;;;28.70;44.30;29.90;96732.00;;;;5096444;28;20184;-85
2022/08/12 09:35:43;;;;;;;1.30;0.80;;;28.70;44.10;29.90;96732.00;;;;5096153;28;20227;-86
2022/08/12 09:38:16;;;;;;;1.63;0.80;;;28.80;44.10;29.90;96742.00;;;;5096318;28;20180;-85
2022/08/12 09:40:46;;;;;;;1.70;1.00;;;28.80;43.80;29.90;96736.00;;;;5097291;28;20180;-85
2022/08/12 09:46:02;;;;;;;1.00;0.97;;;28.80;43.80;29.90;96734.00;;;;5092376;28;20279;-85
2022/08/12 09:48:31;;;;;;;0.88;0.80;;;28.80;43.70;30.00;96731.00;;;;5109004;28;20223;-85
2022/08/12 09:50:59;;;;;;;0.67;0.67;;;28.90;43.40;30.00;96733.00;;;;5106924;28;20196;-85
2022/08/12 09:53:27;;;;;;;1.05;0.95;;;28.80;43.50;30.00;96729.00;;;;5106875;28;20192;-85
2022/08/12 09:55:57;;;;;;;2.17;1.20;;;28.90;43.80;30.00;96728.00;;;;5106922;28;20218;-85
2022/08/12 09:58:28;;;;;;;1.50;0.98;;;28.90;43.40;30.10;96722.00;;;;5073219;28;20196;-84
2022/08/12 10:01:00;;;;;;;0.90;0.90;;;28.90;43.20;30.10;96725.00;;;;5098716;28;20209;-85
2022/08/12 10:03:32;;;;;;;0.60;0.60;;;29.00;42.90;30.10;96722.00;;;;5095435;28;20221;-85
2022/08/12 10:06:01;;;;;;;1.67;0.80;;;29.00;42.80;30.10;96723.00;;;;5095262;28;20288;-84
2022/08/12 10:08:30;;;;;;;1.05;0.90;;;28.90;43.10;30.10;96717.00;;;;5095553;28;20226;-85
2022/08/12 10:13:47;;;;;;;1.85;0.77;;;29.00;43.30;30.50;96721.00;;;;5093612;28;20194;-86
2022/08/12 10:16:17;;;;;;;0.50;0.50;;;29.10;43.20;30.70;96717.00;;;;5093988;28;20293;-86
2022/08/12 10:18:49;;;;;;;0.52;0.52;;;29.20;43.40;30.90;96714.00;;;;5100178;28;20713;-86
2022/08/12 10:21:19;;;;;;;0.60;0.52;;;29.30;42.90;31.10;96724.00;;;;5093709;28;20237;-86
2022/08/12 10:23:49;;;;;;;0.50;0.50;;;29.50;42.90;31.30;96707.00;;;;5093238;28;20755;-85
2022/08/12 10:31:52;;;;;;;0.52;0.40;;;30.00;41.20;31.70;96707.00;;;;5093513;28;20276;-85
2022/08/12 10:34:22;;;;;;;0.77;0.52;;;30.10;40.90;31.80;96708.00;;;;5093173;28;20195;-85
2022/08/12 10:36:53;;;;;;;0.60;0.60;;;30.30;41.00;32.00;96709.00;;;;5092046;28;20230;-85
2022/08/12 10:39:20;;;;;;;0.63;0.47;;;30.50;40.60;32.10;96703.00;;;;5092173;28;20199;-85
2022/08/12 10:44:35;;;;;;;0.65;0.47;;;30.80;39.50;32.30;96701.00;;;;5092808;28;20713;-86
2022/08/12 10:47:04;;;;;;;0.75;0.52;;;30.90;39.40;32.40;96709.00;;;;5092094;28;20219;-86
2022/08/12 10:49:33;;;;;;;0.40;0.40;;;31.10;39.60;32.50;96702.00;;;;5093790;28;20234;-85
2022/08/12 10:52:02;;;;;;;1.35;0.50;;;31.20;39.60;32.60;96704.00;;;;5108681;28;20586;-86
2022/08/12 10:54:30;;;;;;;0.63;0.47;;;31.40;39.30;32.80;96701.00;;;;5117918;28;20199;-86
2022/08/12 10:56:59;;;;;;;0.50;0.50;;;31.50;39.20;32.90;96702.00;;;;5106302;28;20244;-86
2022/08/12 10:59:28;;;;;;;0.98;0.60;;;31.70;38.70;32.90;96698.00;;;;5096688;28;20240;-85
2022/08/12 11:01:57;;;;;;;0.68;0.50;;;31.80;38.40;32.90;96689.00;;;;5090375;28;20199;-86
2022/08/12 11:04:28;;;;;;;0.50;0.50;;;31.90;38.40;32.90;96688.00;;;;5070055;28;20265;-86
2022/08/12 11:06:57;;;;;;;2.05;0.55;;;31.90;37.70;32.80;96681.00;;;;5075684;28;20298;-86
2022/08/12 11:09:30;;;;;;;0.80;0.47;;;31.90;37.60;32.70;96682.00;;;;5090647;28;20223;-85
2022/08/12 11:11:59;;;;;;;1.50;0.57;;;31.90;37.50;32.60;96681.00;;;;5089229;28;20282;-85
2022/08/12 11:14:31;;;;;;;0.30;0.30;;;31.80;37.30;32.50;96676.00;;;;5089882;28;20257;-85
2022/08/12 11:17:02;;;;;;;0.57;0.40;;;31.80;36.90;32.30;96667.00;;;;5101503;22;20229;-85
2022/08/12 11:19:31;;;;;;;11.40;2.35;;;31.70;37.00;32.20;96669.00;;;;5071736;28;20216;-85
2022/08/12 11:21:59;;;;;;;1.50;0.50;;;31.60;37.00;32.00;96670.00;;;;5070843;28;20241;-85
2022/08/12 11:24:28;;;;;;;0.40;0.30;;;31.50;36.30;31.90;96654.00;;;;5071668;28;20253;-85
2022/08/12 11:26:56;;;;;;;0.50;0.50;;;31.40;36.10;31.70;96663.00;;;;5063788;28;20220;-85
2022/08/12 11:29:26;;;;;;;0.82;0.35;;;31.20;35.90;31.60;96664.00;;;;5067210;28;20261;-88
2022/08/12 11:31:54;;;;;;;0.30;0.30;;;31.10;35.80;31.50;96656.00;;;;5071312;28;20204;-84
2022/08/12 11:34:22;;;;;;;1.27;0.30;;;31.00;35.10;31.40;96655.00;;;;5071575;28;20196;-84
2022/08/12 11:36:51;;;;;;;0.85;0.38;;;30.80;35.70;31.20;96652.00;;;;5070570;28;20204;-84
2022/08/12 11:39:18;;;;;;;0.32;0.32;;;30.70;35.70;31.20;96657.00;;;;5089230;28;20572;-84
2022/08/12 11:41:46;;;;;;;1.65;0.50;;;30.60;35.70;31.10;96652.00;;;;5091373;28;20195;-84
2022/08/12 11:44:13;;;;;;;1.02;0.40;;;30.60;36.00;31.10;96642.00;;;;5074160;28;20288;-83
2022/08/12 11:46:41;;;;;;;0.40;0.40;;;30.50;35.90;31.00;96643.00;;;;5068779;28;20269;-84
2022/08/12 11:49:10;;;;;;;0.22;0.20;;;30.40;36.10;31.00;96638.00;;;;5070919;28;20262;-83
2022/08/12 11:51:39;;;;;;;0.40;0.40;;;30.40;36.40;31.00;96644.00;;;;5071055;28;20611;-85
2022/08/12 11:54:07;;;;;;;2.47;0.30;;;30.30;36.30;31.00;96646.00;;;;5071403;28;20192;-84
2022/08/12 11:56:34;;;;;;;0.88;0.40;;;30.30;36.40;31.00;96648.00;;;;5070647;28;20207;-84
2022/08/12 11:59:01;;;;;;;0.35;0.35;;;30.30;36.50;31.00;96644.00;;;;5071002;28;20680;-84
2022/08/12 12:01:29;;;;;;;0.50;0.38;;;30.30;36.20;31.00;96639.00;;;;5070808;28;20200;-84
2022/08/12 12:03:56;;;;;;;0.57;0.30;;;30.20;36.10;31.00;96639.00;;;;5070634;28;20225;-83
2022/08/12 12:06:24;;;;;;;0.30;0.30;;;30.20;36.50;30.90;96642.00;;;;5070600;28;20692;-83
2022/08/12 12:08:52;;;;;;;0.50;0.45;;;30.20;36.60;30.90;96636.00;;;;5070451;28;20216;-84
2022/08/12 12:11:20;;;;;;;0.30;0.30;;;30.20;35.90;30.90;96634.00;;;;5070692;28;20204;-83
2022/08/12 12:13:48;;;;;;;0.32;0.32;;;30.20;35.70;30.80;96640.00;;;;5066940;28;20238;-83
2022/08/12 12:16:15;;;;;;;0.80;0.30;;;30.10;35.50;30.80;96631.00;;;;5070131;28;20291;-83
2022/08/12 12:18:42;;;;;;;0.40;0.40;;;30.10;35.40;30.70;96623.00;;;;5070338;28;20248;-85
2022/08/12 12:21:10;;;;;;;0.28;0.28;;;30.00;35.10;30.70;96626.00;;;;5070843;28;20277;-84
2022/08/12 12:23:37;;;;;;;0.43;0.30;;;30.00;35.30;30.60;96623.00;;;;5070631;28;20277;-84
2022/08/12 12:26:06;;;;;;;0.82;0.35;;;29.90;35.30;30.60;96622.00;;;;5070510;28;20318;-83
2022/08/12 12:28:37;;;;;;;0.40;0.40;;;29.90;35.60;30.50;96622.00;;;;5069087;28;20245;-83
2022/08/12 12:31:06;;;;;;;0.28;0.28;;;29.90;35.70;30.50;96619.00;;;;5068680;28;20647;-83
2022/08/12 12:33:33;;;;;;;0.20;0.20;;;29.80;35.80;30.50;96619.00;;;;5068174;28;20651;-83
2022/08/12 12:36:00;;;;;;;0.38;0.28;;;29.80;35.40;30.50;96618.00;;;;5070635;28;20283;-84
2022/08/12 12:38:28;;;;;;;0.30;0.30;;;29.80;35.20;30.40;96607.00;;;;5068984;28;20290;-83
2022/08/12 12:40:55;;;;;;;0.20;0.20;;;29.70;35.10;30.40;96608.00;;;;5070337;28;20192;-84
2022/08/12 12:43:24;;;;;;;0.22;0.20;;;29.70;35.30;30.40;96602.00;;;;5068898;28;20230;-84
2022/08/12 12:45:51;;;;;;;0.40;0.20;;;29.70;35.90;30.40;96607.00;;;;5070708;28;20269;-83
2022/08/12 12:48:21;;;;;;;0.40;0.40;;;29.70;35.70;30.50;96596.00;;;;5069678;28;20207;-84
2022/08/12 12:51:14;;;;;;;0.52;0.20;;;29.70;36.50;30.50;96595.00;;;;5072065;28;20265;-85
2022/08/12 12:53:42;;;;;;;2.40;0.20;;;29.70;36.00;30.50;96597.00;;;;5074145;28;20736;-84